Hlavní strana
METAR-TAF:

METAR-TAF

Letiště :

Port of Spain, Trinidad, Trinidad a Tobago

zeměpisná šířka: 10-37N, zeměpisná délka: 061-21W, výška: 12 m

Aktuální stav počasí

Zpráva byla vytvořena před 21 minutami, v 02:00 UTC
Východní vítr 6 kt
Teplota 27°C
Vlhkost vzduchu 84%
Tlak 1012 hPa
Viditelnost 10 km a více
Skoro jasno ve výšce 1800 ft

METAR: TTPP 240200Z 10006KT 9999 FEW018 27/24 Q1012 NOSIG

Čas: 22:21 (02:21 UTC)

Předpověď počasí

Zpráva byla vytvořena před 4 hodinami a 21 minutami, v 22:00 UTC
Předpověď platná od 24 v 00 UTC do 24 v 24 UTC
Východojihovýchodní vítr 5 kt
Viditelnost 10 km a více
Skoro jasno ve výšce 1800 ft

TAF: TTPP 232200Z 2400/2424 12005KT 9999 FEW018

Stav a předpovědi počasí z více než 4 000 letišť (zprávy METAR a TAF).

Červené a žluté tečky na mapě představují dostupné meteorologické stanice.

Když kurzor umístíte na tečku, zobrazí se název stanice.

Pak kliknutím zobrazíte stav a předpověď počasí.

Chcete-li změnit mapu, kliknutím na zelené tlačítko se znaménkem +mapu přiblížíte, kliknutím na zelené tlačítko se znaménkem – mapu oddálíte a kliknutím na zelené šipky přejdete na sousední mapy.


METAR-TAF: